Time,TemperatureF,DewpointF,PressureIn,WindDirection,WindDirectionDegrees,WindSpeedMPH,WindSpeedGustMPH,Humidity,HourlyPrecipIn,Conditions,Clouds,dailyrainin,SolarRadiationWatts/m^2,SoftwareType,DateUTC
2013-02-04 00:01:00,30.3,18.1,30.06,SE,143,2.0,5.0,60,0.00,,---,0.00,0.00,VWS V14.01,2013-02-04 06:01:00,
2013-02-04 00:06:00,30.4,18.2,30.05,SE,145,4.0,10.0,60,0.00,,---,0.00,0.00,VWS V14.01,2013-02-04 06:06:00,
2013-02-04 00:11:00,30.4,18.2,30.05,SE,142,1.0,4.0,60,0.00,,---,0.00,0.00,VWS V14.01,2013-02-04 06:11:00,
2013-02-04 00:16:00,30.4,18.2,30.05,ESE,123,3.0,4.0,60,0.00,,---,0.00,0.00,VWS V14.01,2013-02-04 06:16:00,
2013-02-04 00:21:00,30.4,18.2,30.05,SE,133,0.0,2.0,60,0.00,,---,0.00,0.00,VWS V14.01,2013-02-04 06:21:00,
2013-02-04 00:26:00,30.3,18.5,30.05,SE,131,4.0,7.0,61,0.00,,---,0.00,0.00,VWS V14.01,2013-02-04 06:26:00,
2013-02-04 00:31:00,30.2,18.4,30.04,SE,134,0.0,0.0,61,0.00,,---,0.00,0.00,VWS V14.01,2013-02-04 06:31:00,
2013-02-04 00:36:00,30.2,18.4,30.04,SE,143,0.0,0.0,61,0.00,,---,0.00,0.00,VWS V14.01,2013-02-04 06:36:00,
2013-02-04 00:41:00,30.1,18.7,30.04,SE,144,2.0,5.0,62,0.00,,---,0.00,0.00,VWS V14.01,2013-02-04 06:41:00,
2013-02-04 00:46:00,30.0,19.0,30.03,SSE,149,0.0,4.0,63,0.00,,---,0.00,0.00,VWS V14.01,2013-02-04 06:46:00,
2013-02-04 00:51:00,29.9,18.9,30.03,SE,144,0.0,4.0,63,0.00,,---,0.00,0.00,VWS V14.01,2013-02-04 06:51:00,
2013-02-04 00:56:00,29.9,18.9,30.03,SE,143,0.0,6.0,63,0.00,,---,0.00,0.00,VWS V14.01,2013-02-04 06:56:00,
2013-02-04 01:01:00,29.8,19.1,30.02,SE,146,2.0,3.0,64,0.00,,---,0.00,0.00,VWS V14.01,2013-02-04 07:01:00,
2013-02-04 01:06:00,29.8,19.1,30.01,SE,145,4.0,5.0,64,0.00,,---,0.00,0.00,VWS V14.01,2013-02-04 07:06:00,
2013-02-04 01:11:00,29.8,19.1,30.01,SE,144,0.0,4.0,64,0.00,,---,0.00,0.00,VWS V14.01,2013-02-04 07:11:00,
2013-02-04 01:16:00,29.8,19.1,30.01,SE,145,3.0,7.0,64,0.00,,---,0.00,0.00,VWS V14.01,2013-02-04 07:16:00,
2013-02-04 01:21:00,29.8,19.5,30.01,SE,141,2.0,5.0,65,0.00,,---,0.00,0.00,VWS V14.01,2013-02-04 07:21:00,
2013-02-04 01:26:00,29.8,19.5,30.01,SE,144,3.0,5.0,65,0.00,,---,0.00,0.00,VWS V14.01,2013-02-04 07:26:00,
2013-02-04 01:31:00,29.8,19.5,30.01,SE,139,0.0,6.0,65,0.00,,---,0.00,0.00,VWS V14.01,2013-02-04 07:31:00,
2013-02-04 01:36:00,29.8,19.5,30.00,SE,137,3.0,5.0,65,0.00,,---,0.00,0.00,VWS V14.01,2013-02-04 07:36:00,
2013-02-04 01:41:00,29.8,19.5,30.00,SE,142,4.0,8.0,65,0.00,,---,0.00,0.00,VWS V14.01,2013-02-04 07:41:00,
2013-02-04 01:46:00,29.8,19.8,30.00,SE,145,4.0,4.0,66,0.00,,---,0.00,0.00,VWS V14.01,2013-02-04 07:46:00,
2013-02-04 01:51:00,29.9,19.9,30.00,SE,142,0.0,0.0,66,0.00,,---,0.00,0.00,VWS V14.01,2013-02-04 07:51:00,
2013-02-04 01:56:00,30.0,20.0,30.00,SE,138,6.0,6.0,66,0.00,,---,0.00,0.00,VWS V14.01,2013-02-04 07:56:00,
2013-02-04 02:01:00,30.1,20.1,29.99,SE,146,4.0,7.0,66,0.00,,---,0.00,0.00,VWS V14.01,2013-02-04 08:01:00,
2013-02-04 02:06:00,30.3,20.0,29.99,SE,143,4.0,9.0,65,0.00,,---,0.00,0.00,VWS V14.01,2013-02-04 08:06:00,
2013-02-04 02:11:00,30.3,20.0,29.99,SSE,149,0.0,0.0,65,0.00,,---,0.00,0.00,VWS V14.01,2013-02-04 08:11:00,
2013-02-04 02:16:00,30.3,20.3,29.99,SE,146,5.0,6.0,66,0.00,,---,0.00,0.00,VWS V14.01,2013-02-04 08:16:00,
2013-02-04 02:21:00,30.3,20.3,29.98,SE,146,0.0,0.0,66,0.00,,---,0.00,0.00,VWS V14.01,2013-02-04 08:21:00,
2013-02-04 02:26:00,30.4,20.4,29.98,SE,141,5.0,6.0,66,0.00,,---,0.00,0.00,VWS V14.01,2013-02-04 08:26:00,
2013-02-04 02:31:00,30.6,20.6,29.98,SE,142,6.0,6.0,66,0.00,,---,0.00,0.00,VWS V14.01,2013-02-04 08:31:00,
2013-02-04 02:36:00,30.7,20.7,29.98,SSE,147,2.0,4.0,66,0.00,,---,0.00,0.00,VWS V14.01,2013-02-04 08:36:00,
2013-02-04 02:41:00,30.8,20.8,29.98,SSE,152,0.0,3.0,66,0.00,,---,0.00,0.00,VWS V14.01,2013-02-04 08:41:00,
2013-02-04 02:46:00,30.9,20.9,29.98,SE,146,3.0,5.0,66,0.00,,---,0.00,0.00,VWS V14.01,2013-02-04 08:46:00,
2013-02-04 02:51:00,31.1,21.1,29.97,SE,145,0.0,0.0,66,0.00,,---,0.00,0.00,VWS V14.01,2013-02-04 08:51:00,
2013-02-04 02:56:00,31.2,21.2,29.97,SE,142,1.0,4.0,66,0.00,,---,0.00,0.00,VWS V14.01,2013-02-04 08:56:00,
2013-02-04 03:01:00,31.4,21.4,29.97,SE,144,0.0,0.0,66,0.00,,---,0.00,0.00,VWS V14.01,2013-02-04 09:01:00,
2013-02-04 03:06:00,31.4,21.4,29.96,SE,145,0.0,6.0,66,0.00,,---,0.00,0.00,VWS V14.01,2013-02-04 09:06:00,
2013-02-04 03:11:00,31.4,21.4,29.96,SSE,149,6.0,6.0,66,0.00,,---,0.00,0.00,VWS V14.01,2013-02-04 09:11:00,
2013-02-04 03:16:00,31.4,21.4,29.96,SE,141,6.0,6.0,66,0.00,,---,0.00,0.00,VWS V14.01,2013-02-04 09:16:00,
2013-02-04 03:21:00,31.2,21.2,29.95,SE,140,4.0,4.0,66,0.00,,---,0.00,0.00,VWS V14.01,2013-02-04 09:21:00,
2013-02-04 03:26:00,31.1,21.4,29.95,SE,140,0.0,0.0,67,0.00,,---,0.00,0.00,VWS V14.01,2013-02-04 09:26:00,
2013-02-04 03:31:00,31.1,21.4,29.95,SE,142,0.0,0.0,67,0.00,,---,0.00,0.00,VWS V14.01,2013-02-04 09:31:00,
2013-02-04 03:36:00,31.0,21.3,29.95,SE,142,0.0,3.0,67,0.00,,---,0.00,0.00,VWS V14.01,2013-02-04 09:36:00,
2013-02-04 03:41:00,31.0,21.3,29.94,SE,145,0.0,1.0,67,0.00,,---,0.00,0.00,VWS V14.01,2013-02-04 09:41:00,
2013-02-04 03:46:00,31.0,21.7,29.94,SSE,148,5.0,5.0,68,0.00,,---,0.00,0.00,VWS V14.01,2013-02-04 09:46:00,
2013-02-04 03:51:00,31.2,21.5,29.94,SSE,154,6.0,7.0,67,0.00,,---,0.00,0.00,VWS V14.01,2013-02-04 09:51:00,
2013-02-04 03:56:00,31.3,22.0,29.94,SE,146,5.0,5.0,68,0.00,,---,0.00,0.00,VWS V14.01,2013-02-04 09:56:00,
2013-02-04 04:00:00,31.4,21.7,29.94,SE,144,6.0,6.0,67,0.00,,---,0.00,0.00,VWS V14.01,2013-02-04 10:00:00,
2013-02-04 04:05:00,31.5,21.8,29.94,South,169,0.0,0.0,67,0.00,,---,0.00,0.00,VWS V14.01,2013-02-04 10:05:00,
2013-02-04 04:10:00,31.6,21.9,29.94,SE,145,0.0,0.0,67,0.00,,---,0.00,0.00,VWS V14.01,2013-02-04 10:10:00,
2013-02-04 04:15:00,31.7,22.0,29.94,SSE,158,0.0,0.0,67,0.00,,---,0.00,0.00,VWS V14.01,2013-02-04 10:15:00,
2013-02-04 04:20:00,31.9,22.2,29.94,SSE,156,0.0,0.0,67,0.00,,---,0.00,0.00,VWS V14.01,2013-02-04 10:20:00,
2013-02-04 04:25:00,32.0,22.3,29.94,SSE,163,0.0,1.0,67,0.00,,---,0.00,0.00,VWS V14.01,2013-02-04 10:25:00,
2013-02-04 04:30:00,32.2,22.5,29.94,SSE,153,0.0,3.0,67,0.00,,---,0.00,0.00,VWS V14.01,2013-02-04 10:30:00,
2013-02-04 04:35:00,32.4,22.7,29.94,SSE,151,5.0,5.0,67,0.00,,---,0.00,0.00,VWS V14.01,2013-02-04 10:35:00,
2013-02-04 04:40:00,32.6,22.5,29.93,SSE,161,0.0,5.0,66,0.00,,---,0.00,0.00,VWS V14.01,2013-02-04 10:40:00,
2013-02-04 04:45:00,32.7,22.6,29.93,SSE,161,0.0,4.0,66,0.00,,---,0.00,0.00,VWS V14.01,2013-02-04 10:45:00,
2013-02-04 04:50:00,32.9,22.8,29.93,SSE,150,0.0,7.0,66,0.00,,---,0.00,0.00,VWS V14.01,2013-02-04 10:50:00,
2013-02-04 04:55:00,33.0,22.9,29.93,SW,220,5.0,5.0,66,0.00,,---,0.00,0.00,VWS V14.01,2013-02-04 10:55:00,
2013-02-04 05:00:00,33.0,22.9,29.93,SSW,205,0.0,2.0,66,0.00,,---,0.00,0.00,VWS V14.01,2013-02-04 11:00:00,
2013-02-04 05:05:00,33.2,23.1,29.93,South,190,0.0,3.0,66,0.00,,---,0.00,0.00,VWS V14.01,2013-02-04 11:05:00,
2013-02-04 05:10:00,33.3,23.2,29.93,SSW,192,0.0,6.0,66,0.00,,---,0.00,0.00,VWS V14.01,2013-02-04 11:10:00,
2013-02-04 05:15:00,33.4,23.3,29.93,ESE,122,5.0,9.0,66,0.00,,---,0.00,0.00,VWS V14.01,2013-02-04 11:15:00,
2013-02-04 05:20:00,33.5,23.4,29.93,SE,127,3.0,9.0,66,0.00,,---,0.00,0.00,VWS V14.01,2013-02-04 11:20:00,
2013-02-04 05:25:00,33.5,23.4,29.93,SSE,161,3.0,10.0,66,0.00,,---,0.00,0.00,VWS V14.01,2013-02-04 11:25:00,
2013-02-04 05:30:00,33.6,23.5,29.92,SSE,168,2.0,9.0,66,0.00,,---,0.00,0.00,VWS V14.01,2013-02-04 11:30:00,
2013-02-04 05:35:00,33.7,23.6,29.92,SW,225,0.0,4.0,66,0.00,,---,0.00,0.00,VWS V14.01,2013-02-04 11:35:00,
2013-02-04 05:40:00,33.6,23.5,29.92,SSW,192,0.0,6.0,66,0.00,,---,0.00,0.00,VWS V14.01,2013-02-04 11:40:00,
2013-02-04 05:45:00,33.6,23.5,29.91,SSE,147,0.0,6.0,66,0.00,,---,0.00,0.00,VWS V14.01,2013-02-04 11:45:00,
2013-02-04 05:50:00,33.7,23.6,29.91,SE,142,11.0,11.0,66,0.00,,---,0.00,0.00,VWS V14.01,2013-02-04 11:50:00,
2013-02-04 05:55:00,33.7,23.6,29.91,SSE,167,0.0,10.0,66,0.00,,---,0.00,0.00,VWS V14.01,2013-02-04 11:55:00,
2013-02-04 06:00:00,33.9,23.8,29.90,SSE,150,10.0,11.0,66,0.00,,---,0.00,0.00,VWS V14.01,2013-02-04 12:00:00,
2013-02-04 06:05:00,34.0,24.2,29.90,SE,143,5.0,7.0,67,0.00,,---,0.00,0.00,VWS V14.01,2013-02-04 12:05:00,
2013-02-04 06:10:00,34.1,24.0,29.91,SSE,152,1.0,12.0,66,0.00,,---,0.00,0.00,VWS V14.01,2013-02-04 12:10:00,
2013-02-04 06:15:00,34.2,24.4,29.90,SSW,199,1.0,4.0,67,0.00,,---,0.00,0.00,VWS V14.01,2013-02-04 12:15:00,
2013-02-04 06:20:00,34.2,24.4,29.90,South,184,0.0,6.0,67,0.00,,---,0.00,0.00,VWS V14.01,2013-02-04 12:20:00,
2013-02-04 06:25:00,34.2,24.4,29.90,SE,126,0.0,6.0,67,0.00,,---,0.00,0.00,VWS V14.01,2013-02-04 12:25:00,
2013-02-04 06:30:00,34.2,24.4,29.90,WSW,245,4.0,4.0,67,0.00,,---,0.00,0.00,VWS V14.01,2013-02-04 12:30:00,
2013-02-04 06:35:00,34.2,24.4,29.90,South,178,0.0,5.0,67,0.00,,---,0.00,0.00,VWS V14.01,2013-02-04 12:35:00,
2013-02-04 06:40:00,34.1,24.7,29.90,SE,138,0.0,6.0,68,0.00,,---,0.00,0.00,VWS V14.01,2013-02-04 12:40:00,
2013-02-04 06:45:00,34.0,24.6,29.90,SSW,192,0.0,4.0,68,0.00,,---,0.00,0.00,VWS V14.01,2013-02-04 12:45:00,
2013-02-04 06:50:00,33.9,24.5,29.90,South,174,0.0,3.0,68,0.00,,---,0.00,0.00,VWS V14.01,2013-02-04 12:50:00,
2013-02-04 06:55:00,33.8,24.7,29.90,South,188,0.0,4.0,69,0.00,,---,0.00,0.00,VWS V14.01,2013-02-04 12:55:00,
2013-02-04 07:00:00,33.7,24.6,29.90,SSW,199,0.0,6.0,69,0.00,,---,0.00,0.00,VWS V14.01,2013-02-04 13:00:00,
2013-02-04 07:05:00,33.6,24.5,29.90,SW,214,0.0,6.0,69,0.00,,---,0.00,0.00,VWS V14.01,2013-02-04 13:05:00,
2013-02-04 07:10:00,33.5,24.4,29.90,SSE,166,0.0,3.0,69,0.00,,---,0.00,0.00,VWS V14.01,2013-02-04 13:10:00,
2013-02-04 07:15:00,33.5,24.8,29.90,South,175,0.0,4.0,70,0.00,,---,0.00,0.00,VWS V14.01,2013-02-04 13:15:00,
2013-02-04 07:20:00,33.6,24.9,29.90,SSW,201,0.0,1.0,70,0.00,,---,0.00,5.00,VWS V14.01,2013-02-04 13:20:00,
2013-02-04 07:25:00,33.6,24.9,29.90,South,183,0.0,2.0,70,0.00,,---,0.00,7.00,VWS V14.01,2013-02-04 13:25:00,
2013-02-04 07:30:00,33.6,24.9,29.90,SSW,210,0.0,1.0,70,0.00,,---,0.00,14.00,VWS V14.01,2013-02-04 13:30:00,
2013-02-04 07:35:00,33.5,24.8,29.90,SSW,194,0.0,0.0,70,0.00,,---,0.00,23.00,VWS V14.01,2013-02-04 13:35:00,
2013-02-04 07:40:00,33.5,24.8,29.91,SSW,194,0.0,0.0,70,0.00,,---,0.00,30.00,VWS V14.01,2013-02-04 13:40:00,
2013-02-04 07:45:00,33.5,25.1,29.91,SSW,194,0.0,0.0,71,0.00,,---,0.00,60.00,VWS V14.01,2013-02-04 13:45:00,
2013-02-04 07:50:00,33.6,25.2,29.91,SSW,195,0.0,1.0,71,0.00,,---,0.00,47.00,VWS V14.01,2013-02-04 13:50:00,
2013-02-04 07:55:00,33.7,25.3,29.92,West,266,0.0,3.0,71,0.00,,---,0.00,51.00,VWS V14.01,2013-02-04 13:55:00,
2013-02-04 08:00:00,33.8,25.4,29.92,West,267,0.0,0.0,71,0.00,,---,0.00,62.00,VWS V14.01,2013-02-04 14:00:00,
2013-02-04 08:05:00,33.8,25.4,29.93,West,267,0.0,0.0,71,0.00,,---,0.00,58.00,VWS V14.01,2013-02-04 14:05:00,
2013-02-04 08:10:00,33.9,25.5,29.93,West,267,0.0,0.0,71,0.00,,---,0.00,125.00,VWS V14.01,2013-02-04 14:10:00,
2013-02-04 08:15:00,34.1,25.7,29.93,West,267,0.0,0.0,71,0.00,,---,0.00,181.00,VWS V14.01,2013-02-04 14:15:00,
2013-02-04 08:20:00,34.4,26.0,29.93,West,267,0.0,0.0,71,0.00,,---,0.00,214.00,VWS V14.01,2013-02-04 14:20:00,
2013-02-04 08:25:00,35.0,26.2,29.93,West,266,0.0,4.0,70,0.00,,---,0.00,195.00,VWS V14.01,2013-02-04 14:25:00,
2013-02-04 08:30:00,35.2,26.4,29.93,WSW,241,3.0,6.0,70,0.00,,---,0.00,171.00,VWS V14.01,2013-02-04 14:30:00,
2013-02-04 08:35:00,35.3,26.2,29.93,SW,234,0.0,4.0,69,0.00,,---,0.00,199.00,VWS V14.01,2013-02-04 14:35:00,
2013-02-04 08:40:00,35.6,26.5,29.93,SW,236,2.0,4.0,69,0.00,,---,0.00,169.00,VWS V14.01,2013-02-04 14:40:00,
2013-02-04 08:45:00,35.7,26.5,29.93,WSW,256,0.0,4.0,69,0.00,,---,0.00,104.00,VWS V14.01,2013-02-04 14:45:00,
2013-02-04 08:50:00,35.8,26.3,29.93,WSW,239,0.0,2.0,68,0.00,,---,0.00,86.00,VWS V14.01,2013-02-04 14:50:00,
2013-02-04 08:55:00,35.8,26.3,29.93,WSW,239,0.0,0.0,68,0.00,,---,0.00,120.00,VWS V14.01,2013-02-04 14:55:00,
2013-02-04 09:00:00,35.9,26.4,29.93,WSW,238,0.0,4.0,68,0.00,,---,0.00,153.00,VWS V14.01,2013-02-04 15:00:00,
2013-02-04 09:05:00,36.1,26.9,29.94,WSW,239,0.0,0.0,69,0.00,,---,0.00,130.00,VWS V14.01,2013-02-04 15:05:00,
2013-02-04 09:10:00,36.2,26.7,29.93,WSW,239,0.0,2.0,68,0.00,,---,0.00,76.00,VWS V14.01,2013-02-04 15:10:00,
2013-02-04 09:15:00,36.1,26.6,29.93,WNW,284,2.0,3.0,68,0.00,,---,0.00,98.00,VWS V14.01,2013-02-04 15:15:00,
2013-02-04 09:20:00,36.1,26.6,29.93,WNW,296,0.0,0.0,68,0.00,,---,0.00,84.00,VWS V14.01,2013-02-04 15:20:00,
2013-02-04 09:25:00,36.2,26.7,29.93,WNW,296,0.0,0.0,68,0.00,,---,0.00,118.00,VWS V14.01,2013-02-04 15:25:00,
2013-02-04 09:30:00,36.3,27.1,29.93,WNW,296,0.0,0.0,69,0.00,,---,0.00,121.00,VWS V14.01,2013-02-04 15:30:00,
2013-02-04 09:35:00,36.5,27.3,29.94,WNW,296,0.0,0.0,69,0.00,,---,0.00,113.00,VWS V14.01,2013-02-04 15:35:00,
2013-02-04 09:40:00,36.6,27.0,29.93,WNW,296,0.0,0.0,68,0.00,,---,0.00,107.00,VWS V14.01,2013-02-04 15:40:00,
2013-02-04 09:45:00,36.7,28.5,29.93,WNW,297,0.0,1.0,72,0.00,,---,0.00,63.00,VWS V14.01,2013-02-04 15:45:00,
2013-02-04 09:50:00,36.7,28.5,29.93,WNW,296,0.0,0.0,72,0.00,,---,0.00,79.00,VWS V14.01,2013-02-04 15:50:00,
2013-02-04 09:55:00,36.9,27.3,29.94,WNW,297,0.0,0.0,68,0.00,,---,0.00,241.00,VWS V14.01,2013-02-04 15:55:00,
2013-02-04 10:00:00,37.5,27.5,29.94,WNW,297,0.0,3.0,67,0.00,,---,0.00,320.00,VWS V14.01,2013-02-04 16:00:00,
2013-02-04 10:05:00,38.2,28.2,29.94,WNW,290,0.0,3.0,67,0.00,,---,0.00,420.00,VWS V14.01,2013-02-04 16:05:00,
2013-02-04 10:10:00,38.9,28.5,29.94,WNW,299,1.0,3.0,66,0.00,,---,0.00,455.00,VWS V14.01,2013-02-04 16:10:00,
2013-02-04 10:15:00,39.4,28.6,29.94,WNW,302,0.0,4.0,65,0.00,,---,0.00,471.00,VWS V14.01,2013-02-04 16:15:00,
2013-02-04 10:20:00,39.7,28.9,29.94,NW,317,0.0,4.0,65,0.00,,---,0.00,480.00,VWS V14.01,2013-02-04 16:20:00,
2013-02-04 10:24:00,40.2,29.8,29.94,NW,322,0.0,2.0,66,0.00,,---,0.00,490.00,VWS V14.01,2013-02-04 16:24:00,
2013-02-04 10:29:00,40.7,29.5,29.94,NW,311,2.0,7.0,64,0.00,,---,0.00,499.00,VWS V14.01,2013-02-04 16:29:00,
2013-02-04 10:34:00,40.8,30.0,29.94,NW,318,3.0,11.0,65,0.00,,---,0.00,508.00,VWS V14.01,2013-02-04 16:34:00,
2013-02-04 10:39:00,41.1,29.9,29.95,NW,319,1.0,9.0,64,0.00,,---,0.00,517.00,VWS V14.01,2013-02-04 16:39:00,
2013-02-04 10:44:00,41.2,30.0,29.95,NNW,347,4.0,10.0,64,0.00,,---,0.00,526.00,VWS V14.01,2013-02-04 16:44:00,
2013-02-04 10:49:00,41.1,29.9,29.95,North,349,4.0,11.0,64,0.00,,---,0.00,534.00,VWS V14.01,2013-02-04 16:49:00,
2013-02-04 10:54:00,41.2,30.0,29.95,WNW,303,2.0,9.0,64,0.00,,---,0.00,541.00,VWS V14.01,2013-02-04 16:54:00,
2013-02-04 10:59:00,41.3,30.4,29.95,NNW,329,0.0,7.0,65,0.00,,---,0.00,550.00,VWS V14.01,2013-02-04 16:59:00,
2013-02-04 11:04:00,41.5,30.2,29.96,NNE,25,3.0,6.0,64,0.00,,---,0.00,555.00,VWS V14.01,2013-02-04 17:04:00,
2013-02-04 11:09:00,41.5,30.2,29.96,North,360,0.0,7.0,64,0.00,,---,0.00,563.00,VWS V14.01,2013-02-04 17:09:00,
2013-02-04 11:14:00,41.5,30.2,29.96,NW,323,6.0,12.0,64,0.00,,---,0.00,570.00,VWS V14.01,2013-02-04 17:14:00,
2013-02-04 11:19:00,41.4,30.1,29.96,NNW,329,0.0,11.0,64,0.00,,---,0.00,564.00,VWS V14.01,2013-02-04 17:19:00,
2013-02-04 11:24:00,41.5,30.2,29.96,NNW,347,12.0,12.0,64,0.00,,---,0.00,577.00,VWS V14.01,2013-02-04 17:24:00,
2013-02-04 11:29:00,41.5,30.2,29.97,NW,323,4.0,10.0,64,0.00,,---,0.00,577.00,VWS V14.01,2013-02-04 17:29:00,
2013-02-04 11:34:00,41.5,30.2,29.97,NNW,338,1.0,13.0,64,0.00,,---,0.00,584.00,VWS V14.01,2013-02-04 17:34:00,
2013-02-04 11:39:00,41.5,30.6,29.97,North,355,5.0,8.0,65,0.00,,---,0.00,592.00,VWS V14.01,2013-02-04 17:39:00,
2013-02-04 11:44:00,41.6,30.3,29.97,WNW,288,4.0,8.0,64,0.00,,---,0.00,580.00,VWS V14.01,2013-02-04 17:44:00,
2013-02-04 11:49:00,41.4,30.1,29.97,NNW,329,8.0,11.0,64,0.00,,---,0.00,603.00,VWS V14.01,2013-02-04 17:49:00,
2013-02-04 11:54:00,41.1,29.9,29.97,NW,306,10.0,14.0,64,0.00,,---,0.00,545.00,VWS V14.01,2013-02-04 17:54:00,
2013-02-04 11:59:00,40.9,29.7,29.97,NNE,26,1.0,8.0,64,0.00,,---,0.00,584.00,VWS V14.01,2013-02-04 17:59:00,
2013-02-04 12:04:00,41.1,29.9,29.97,NNE,24,10.0,15.0,64,0.00,,---,0.00,566.00,VWS V14.01,2013-02-04 18:04:00,
2013-02-04 12:09:00,41.1,29.9,29.97,North,9,7.0,7.0,64,0.00,,---,0.00,617.00,VWS V14.01,2013-02-04 18:09:00,
2013-02-04 12:14:00,41.3,30.4,29.97,North,360,6.0,8.0,65,0.00,,---,0.00,619.00,VWS V14.01,2013-02-04 18:14:00,
2013-02-04 12:19:00,41.1,29.9,29.98,NW,318,9.0,11.0,64,0.00,,---,0.00,622.00,VWS V14.01,2013-02-04 18:19:00,
2013-02-04 12:24:00,40.7,29.5,29.98,NNW,327,2.0,13.0,64,0.00,,---,0.00,622.00,VWS V14.01,2013-02-04 18:24:00,
2013-02-04 12:29:00,40.9,29.7,29.99,North,11,13.0,13.0,64,0.00,,---,0.00,624.00,VWS V14.01,2013-02-04 18:29:00,
2013-02-04 12:34:00,40.6,29.0,29.99,NNW,332,3.0,15.0,63,0.00,,---,0.00,624.00,VWS V14.01,2013-02-04 18:34:00,
2013-02-04 12:39:00,40.3,28.7,29.99,NNW,338,9.0,11.0,63,0.00,,---,0.00,622.00,VWS V14.01,2013-02-04 18:39:00,
2013-02-04 12:44:00,40.1,28.5,30.00,NW,309,7.0,14.0,63,0.00,,---,0.00,622.00,VWS V14.01,2013-02-04 18:44:00,
2013-02-04 12:49:00,39.8,27.9,30.00,NW,323,6.0,13.0,62,0.00,,---,0.00,621.00,VWS V14.01,2013-02-04 18:49:00,
2013-02-04 12:54:00,39.6,28.1,30.00,NNW,339,12.0,12.0,63,0.00,,---,0.00,621.00,VWS V14.01,2013-02-04 18:54:00,
2013-02-04 12:59:00,39.3,28.2,30.00,NNW,336,7.0,14.0,64,0.00,,---,0.00,619.00,VWS V14.01,2013-02-04 18:59:00,
2013-02-04 13:04:00,39.4,28.2,30.00,NE,42,0.0,17.0,64,0.00,,---,0.00,613.00,VWS V14.01,2013-02-04 19:04:00,
2013-02-04 13:09:00,39.3,28.2,30.00,North,355,2.0,13.0,64,0.00,,---,0.00,612.00,VWS V14.01,2013-02-04 19:09:00,
2013-02-04 13:14:00,39.2,27.7,30.01,NNW,327,5.0,15.0,63,0.00,,---,0.00,608.00,VWS V14.01,2013-02-04 19:14:00,
2013-02-04 13:19:00,39.3,28.2,30.01,NNW,337,12.0,12.0,64,0.00,,---,0.00,606.00,VWS V14.01,2013-02-04 19:19:00,
2013-02-04 13:24:00,39.1,28.0,30.01,NNE,16,9.0,13.0,64,0.00,,---,0.00,598.00,VWS V14.01,2013-02-04 19:24:00,
2013-02-04 13:29:00,38.9,27.8,30.01,North,5,6.0,15.0,64,0.00,,---,0.00,592.00,VWS V14.01,2013-02-04 19:29:00,
2013-02-04 13:34:00,39.0,28.2,30.01,NE,45,2.0,10.0,65,0.00,,---,0.00,578.00,VWS V14.01,2013-02-04 19:34:00,
2013-02-04 13:39:00,39.2,27.7,30.01,NNW,334,0.0,15.0,63,0.00,,---,0.00,580.00,VWS V14.01,2013-02-04 19:39:00,
2013-02-04 13:44:00,38.7,27.6,30.01,North,9,9.0,13.0,64,0.00,,---,0.00,577.00,VWS V14.01,2013-02-04 19:44:00,
2013-02-04 13:49:00,38.4,27.7,30.00,North,360,11.0,14.0,65,0.00,,---,0.00,568.00,VWS V14.01,2013-02-04 19:49:00,
2013-02-04 13:54:00,38.2,27.9,30.00,NNW,331,4.0,9.0,66,0.00,,---,0.00,585.00,VWS V14.01,2013-02-04 19:54:00,
2013-02-04 13:59:00,38.2,27.9,30.01,NW,315,9.0,17.0,66,0.00,,---,0.00,287.00,VWS V14.01,2013-02-04 19:59:00,
2013-02-04 14:04:00,37.4,27.1,30.02,NW,322,5.0,16.0,66,0.00,,---,0.00,306.00,VWS V14.01,2013-02-04 20:04:00,
2013-02-04 14:09:00,36.6,27.0,30.02,North,355,5.0,10.0,68,0.00,,---,0.00,355.00,VWS V14.01,2013-02-04 20:09:00,
2013-02-04 14:14:00,36.3,27.1,30.02,North,360,3.0,16.0,69,0.00,,---,0.00,339.00,VWS V14.01,2013-02-04 20:14:00,
2013-02-04 14:19:00,35.9,26.7,30.01,NNW,332,11.0,11.0,69,0.00,,---,0.00,309.00,VWS V14.01,2013-02-04 20:19:00,
2013-02-04 14:24:00,35.5,26.7,30.02,North,9,6.0,15.0,70,0.00,,---,0.00,257.00,VWS V14.01,2013-02-04 20:24:00,
2013-02-04 14:29:00,35.2,26.8,30.02,NNW,343,4.0,9.0,71,0.00,,---,0.00,251.00,VWS V14.01,2013-02-04 20:29:00,
2013-02-04 14:34:00,35.0,26.6,30.02,NW,324,3.0,11.0,71,0.00,,---,0.00,250.00,VWS V14.01,2013-02-04 20:34:00,
2013-02-04 14:39:00,34.8,26.4,30.02,North,360,4.0,11.0,71,0.00,,---,0.00,237.00,VWS V14.01,2013-02-04 20:39:00,
2013-02-04 14:44:00,34.5,26.1,30.02,WNW,292,3.0,11.0,71,0.00,,---,0.00,197.00,VWS V14.01,2013-02-04 20:44:00,
2013-02-04 14:49:00,34.4,26.3,30.02,NNW,334,9.0,13.0,72,0.00,,---,0.00,183.00,VWS V14.01,2013-02-04 20:49:00,
2013-02-04 14:54:00,34.1,26.0,30.02,North,355,3.0,10.0,72,0.00,,---,0.00,156.00,VWS V14.01,2013-02-04 20:54:00,
2013-02-04 14:59:00,33.9,26.2,30.02,NW,320,2.0,12.0,73,0.00,,---,0.00,149.00,VWS V14.01,2013-02-04 20:59:00,
2013-02-04 15:04:00,33.8,26.1,30.02,NE,42,0.0,6.0,73,0.00,,---,0.00,163.00,VWS V14.01,2013-02-04 21:04:00,
2013-02-04 15:09:00,33.7,25.6,30.02,NNE,30,4.0,10.0,72,0.00,,---,0.00,146.00,VWS V14.01,2013-02-04 21:09:00,
2013-02-04 15:14:00,33.3,25.3,30.02,NNW,336,5.0,10.0,72,0.00,,---,0.00,149.00,VWS V14.01,2013-02-04 21:14:00,
2013-02-04 15:19:00,33.1,25.4,30.03,North,360,5.0,10.0,73,0.00,,---,0.00,120.00,VWS V14.01,2013-02-04 21:19:00,
2013-02-04 15:24:00,32.9,25.5,30.03,NNE,28,5.0,12.0,74,0.00,,---,0.00,113.00,VWS V14.01,2013-02-04 21:24:00,
2013-02-04 15:29:00,32.6,25.2,30.03,North,9,4.0,10.0,74,0.00,,---,0.00,109.00,VWS V14.01,2013-02-04 21:29:00,
2013-02-04 15:34:00,32.3,25.0,30.04,North,5,2.0,7.0,74,0.00,,---,0.00,97.00,VWS V14.01,2013-02-04 21:34:00,
2013-02-04 15:39:00,32.1,25.1,30.04,NNE,32,3.0,7.0,75,0.00,,---,0.00,91.00,VWS V14.01,2013-02-04 21:39:00,
2013-02-04 15:44:00,32.0,25.0,30.04,North,360,4.0,8.0,75,0.00,,---,0.00,98.00,VWS V14.01,2013-02-04 21:44:00,
2013-02-04 15:49:00,31.8,24.8,30.05,NNW,341,3.0,10.0,75,0.00,,---,0.00,102.00,VWS V14.01,2013-02-04 21:49:00,
2013-02-04 15:54:00,31.6,24.9,30.04,North,9,5.0,7.0,76,0.00,,---,0.00,102.00,VWS V14.01,2013-02-04 21:54:00,
2013-02-04 15:59:00,31.4,24.7,30.05,NE,35,4.0,7.0,76,0.00,,---,0.00,95.00,VWS V14.01,2013-02-04 21:59:00,
2013-02-04 16:04:00,31.4,25.0,30.05,NNE,29,4.0,6.0,77,0.00,,---,0.00,90.00,VWS V14.01,2013-02-04 22:04:00,
2013-02-04 16:09:00,31.2,24.5,30.06,NNE,13,2.0,9.0,76,0.00,,---,0.00,74.00,VWS V14.01,2013-02-04 22:09:00,
2013-02-04 16:14:00,31.1,24.4,30.06,North,5,2.0,6.0,76,0.00,,---,0.00,58.00,VWS V14.01,2013-02-04 22:14:00,
2013-02-04 16:19:00,31.0,24.3,30.06,NNW,327,4.0,11.0,76,0.00,,---,0.00,46.00,VWS V14.01,2013-02-04 22:19:00,
2013-02-04 16:24:00,30.8,24.5,30.07,North,355,6.0,7.0,77,0.00,,---,0.00,46.00,VWS V14.01,2013-02-04 22:24:00,
2013-02-04 16:29:00,30.5,24.2,30.07,North,5,3.0,7.0,77,0.00,,---,0.00,42.00,VWS V14.01,2013-02-04 22:29:00,
2013-02-04 16:34:00,30.3,24.0,30.08,NNW,338,4.0,6.0,77,0.00,,---,0.00,35.00,VWS V14.01,2013-02-04 22:34:00,
2013-02-04 16:39:00,30.1,24.1,30.08,North,349,6.0,6.0,78,0.00,,---,0.00,30.00,VWS V14.01,2013-02-04 22:39:00,
2013-02-04 16:44:00,29.9,23.9,30.08,NW,321,4.0,9.0,78,0.00,,---,0.00,16.00,VWS V14.01,2013-02-04 22:44:00,
2013-02-04 16:49:00,29.7,23.7,30.09,NW,322,2.0,11.0,78,0.00,,---,0.00,18.00,VWS V14.01,2013-02-04 22:49:00,
2013-02-04 16:54:00,29.5,23.5,30.09,NNW,340,6.0,6.0,78,0.00,,---,0.00,11.00,VWS V14.01,2013-02-04 22:54:00,
2013-02-04 16:59:00,29.4,23.7,30.09,North,355,8.0,9.0,79,0.00,,---,0.00,12.00,VWS V14.01,2013-02-04 22:59:00,
2013-02-04 17:04:00,29.2,23.5,30.09,North,355,3.0,6.0,79,0.00,,---,0.00,11.00,VWS V14.01,2013-02-04 23:04:00,
2013-02-04 17:09:00,29.0,23.3,30.08,NW,317,1.0,7.0,79,0.00,,---,0.00,5.00,VWS V14.01,2013-02-04 23:09:00,
2013-02-04 17:14:00,28.8,23.1,30.08,North,350,1.0,10.0,79,0.00,,---,0.00,0.00,VWS V14.01,2013-02-04 23:14:00,
2013-02-04 17:19:00,28.5,23.1,30.08,NNW,338,3.0,9.0,80,0.00,,---,0.00,0.00,VWS V14.01,2013-02-04 23:19:00,
2013-02-04 17:23:00,28.4,23.0,30.08,NNW,330,3.0,7.0,80,0.00,,---,0.00,0.00,VWS V14.01,2013-02-04 23:23:00,
2013-02-04 17:28:00,28.3,22.9,30.08,NNW,348,5.0,10.0,80,0.00,,---,0.00,0.00,VWS V14.01,2013-02-04 23:28:00,
2013-02-04 17:33:00,28.2,23.1,30.08,NNE,18,2.0,3.0,81,0.00,,---,0.00,0.00,VWS V14.01,2013-02-04 23:33:00,
2013-02-04 17:38:00,28.1,23.0,30.08,NW,313,7.0,11.0,81,0.00,,---,0.00,0.00,VWS V14.01,2013-02-04 23:38:00,
2013-02-04 17:43:00,27.9,22.8,30.08,NNW,337,3.0,6.0,81,0.00,,---,0.00,0.00,VWS V14.01,2013-02-04 23:43:00,
2013-02-04 17:48:00,27.8,22.7,30.08,NW,324,2.0,6.0,81,0.00,,---,0.00,0.00,VWS V14.01,2013-02-04 23:48:00,
2013-02-04 17:53:00,27.8,22.7,30.08,North,11,5.0,6.0,81,0.00,,---,0.00,0.00,VWS V14.01,2013-02-04 23:53:00,
2013-02-04 17:58:00,27.7,22.6,30.09,NNW,348,0.0,9.0,81,0.00,,---,0.00,0.00,VWS V14.01,2013-02-04 23:58:00,
2013-02-04 18:03:00,27.6,22.5,30.09,NNW,327,0.0,7.0,81,0.00,,---,0.00,0.00,VWS V14.01,2013-02-05 00:03:00,
2013-02-04 18:08:00,27.5,22.5,30.09,NW,311,0.0,4.0,81,0.00,,---,0.00,0.00,VWS V14.01,2013-02-05 00:08:00,
2013-02-04 18:13:00,27.5,22.5,30.09,NNW,330,6.0,6.0,81,0.00,,---,0.00,0.00,VWS V14.01,2013-02-05 00:13:00,
2013-02-04 18:18:00,27.5,22.5,30.09,NNW,337,6.0,6.0,81,0.00,,---,0.00,0.00,VWS V14.01,2013-02-05 00:18:00,
2013-02-04 18:23:00,27.4,22.4,30.09,NNW,344,1.0,4.0,81,0.00,,---,0.00,0.00,VWS V14.01,2013-02-05 00:23:00,
2013-02-04 18:28:00,27.4,22.4,30.10,North,360,2.0,2.0,81,0.00,,---,0.00,0.00,VWS V14.01,2013-02-05 00:28:00,
2013-02-04 18:33:00,27.4,22.4,30.10,NNW,343,0.0,3.0,81,0.00,,---,0.00,0.00,VWS V14.01,2013-02-05 00:33:00,
2013-02-04 18:38:00,27.4,22.4,30.10,ENE,62,2.0,4.0,81,0.00,,---,0.00,0.00,VWS V14.01,2013-02-05 00:38:00,
2013-02-04 18:43:00,27.3,22.2,30.09,NNE,22,1.0,6.0,81,0.00,,---,0.00,0.00,VWS V14.01,2013-02-05 00:43:00,
2013-02-04 18:48:00,27.3,22.2,30.10,NNE,16,0.0,4.0,81,0.00,,---,0.00,0.00,VWS V14.01,2013-02-05 00:48:00,
2013-02-04 18:53:00,27.3,22.2,30.09,NNE,19,0.0,5.0,81,0.00,,---,0.00,0.00,VWS V14.01,2013-02-05 00:53:00,
2013-02-04 18:58:00,27.4,22.4,30.09,NNE,22,0.0,2.0,81,0.00,,---,0.00,0.00,VWS V14.01,2013-02-05 00:58:00,
2013-02-04 19:03:00,27.4,22.4,30.10,North,360,2.0,6.0,81,0.00,,---,0.00,0.00,VWS V14.01,2013-02-05 01:03:00,
2013-02-04 19:08:00,27.4,22.4,30.10,NNE,12,0.0,5.0,81,0.00,,---,0.00,0.00,VWS V14.01,2013-02-05 01:08:00,
2013-02-04 19:13:00,27.5,22.5,30.10,NNW,348,0.0,5.0,81,0.00,,---,0.00,0.00,VWS V14.01,2013-02-05 01:13:00,
2013-02-04 19:18:00,27.5,22.5,30.09,North,10,5.0,5.0,81,0.00,,---,0.00,0.00,VWS V14.01,2013-02-05 01:18:00,
2013-02-04 19:23:00,27.5,22.5,30.09,North,5,0.0,3.0,81,0.00,,---,0.00,0.00,VWS V14.01,2013-02-05 01:23:00,
2013-02-04 19:28:00,27.6,22.5,30.09,North,5,0.0,1.0,81,0.00,,---,0.00,0.00,VWS V14.01,2013-02-05 01:28:00,
2013-02-04 19:33:00,27.6,22.5,30.09,North,360,0.0,6.0,81,0.00,,---,0.00,0.00,VWS V14.01,2013-02-05 01:33:00,
2013-02-04 19:38:00,27.6,22.5,30.10,North,355,0.0,0.0,81,0.00,,---,0.00,0.00,VWS V14.01,2013-02-05 01:38:00,
2013-02-04 19:43:00,27.6,22.5,30.10,NNW,340,3.0,4.0,81,0.00,,---,0.00,0.00,VWS V14.01,2013-02-05 01:43:00,
2013-02-04 19:48:00,27.7,22.6,30.10,NW,321,0.0,1.0,81,0.00,,---,0.00,0.00,VWS V14.01,2013-02-05 01:48:00,
2013-02-04 19:53:00,27.8,22.7,30.09,NW,321,1.0,1.0,81,0.00,,---,0.00,0.00,VWS V14.01,2013-02-05 01:53:00,
2013-02-04 19:58:00,27.8,22.7,30.10,NNW,330,0.0,2.0,81,0.00,,---,0.00,0.00,VWS V14.01,2013-02-05 01:58:00,
2013-02-04 20:03:00,27.8,22.7,30.10,NNW,336,0.0,4.0,81,0.00,,---,0.00,0.00,VWS V14.01,2013-02-05 02:03:00,
2013-02-04 20:08:00,27.9,22.8,30.10,NNW,336,0.0,3.0,81,0.00,,---,0.00,0.00,VWS V14.01,2013-02-05 02:08:00,
2013-02-04 20:13:00,27.9,22.8,30.10,NNW,335,0.0,0.0,81,0.00,,---,0.00,0.00,VWS V14.01,2013-02-05 02:13:00,
2013-02-04 20:18:00,28.0,22.9,30.10,NNW,335,0.0,0.0,81,0.00,,---,0.00,0.00,VWS V14.01,2013-02-05 02:18:00,
2013-02-04 20:23:00,28.0,22.9,30.11,NNW,336,0.0,0.0,81,0.00,,---,0.00,0.00,VWS V14.01,2013-02-05 02:23:00,
2013-02-04 20:28:00,28.1,23.0,30.10,NNW,335,0.0,0.0,81,0.00,,---,0.00,0.00,VWS V14.01,2013-02-05 02:28:00,
2013-02-04 20:33:00,28.1,23.0,30.10,NNW,334,0.0,0.0,81,0.00,,---,0.00,0.00,VWS V14.01,2013-02-05 02:33:00,
2013-02-04 20:38:00,28.1,23.0,30.10,NNW,335,0.0,0.0,81,0.00,,---,0.00,0.00,VWS V14.01,2013-02-05 02:38:00,
2013-02-04 20:43:00,28.2,23.4,30.10,NNW,335,0.0,0.0,82,0.00,,---,0.00,0.00,VWS V14.01,2013-02-05 02:43:00,
2013-02-04 20:48:00,28.2,23.1,30.10,NNW,334,0.0,1.0,81,0.00,,---,0.00,0.00,VWS V14.01,2013-02-05 02:48:00,
2013-02-04 20:53:00,28.2,23.1,30.11,NNW,336,0.0,2.0,81,0.00,,---,0.00,0.00,VWS V14.01,2013-02-05 02:53:00,
2013-02-04 20:58:00,28.2,23.1,30.11,NNW,336,1.0,3.0,81,0.00,,---,0.00,0.00,VWS V14.01,2013-02-05 02:58:00,
2013-02-04 21:03:00,28.1,23.0,30.11,NNW,336,1.0,4.0,81,0.00,,---,0.00,0.00,VWS V14.01,2013-02-05 03:03:00,
2013-02-04 21:08:00,28.2,23.1,30.12,NNW,336,1.0,2.0,81,0.00,,---,0.00,0.00,VWS V14.01,2013-02-05 03:08:00,
2013-02-04 21:13:00,28.2,23.1,30.11,NNW,336,0.0,3.0,81,0.00,,---,0.00,0.00,VWS V14.01,2013-02-05 03:13:00,
2013-02-04 21:18:00,28.2,23.1,30.11,NNW,336,0.0,3.0,81,0.00,,---,0.00,0.00,VWS V14.01,2013-02-05 03:18:00,
2013-02-04 21:23:00,28.2,22.8,30.11,NNW,336,0.0,0.0,80,0.00,,---,0.00,0.00,VWS V14.01,2013-02-05 03:23:00,
2013-02-04 21:28:00,28.1,22.7,30.11,NNW,336,0.0,0.0,80,0.00,,---,0.00,0.00,VWS V14.01,2013-02-05 03:28:00,
2013-02-04 21:33:00,28.1,22.7,30.11,NNW,336,0.0,0.0,80,0.00,,---,0.00,0.00,VWS V14.01,2013-02-05 03:33:00,
2013-02-04 21:38:00,28.2,22.8,30.11,NNW,336,0.0,0.0,80,0.00,,---,0.00,0.00,VWS V14.01,2013-02-05 03:38:00,
2013-02-04 21:43:00,28.1,22.7,30.11,NNW,336,0.0,0.0,80,0.00,,---,0.00,0.00,VWS V14.01,2013-02-05 03:43:00,
2013-02-04 21:48:00,28.1,22.7,30.11,NNW,336,0.0,0.0,80,0.00,,---,0.00,0.00,VWS V14.01,2013-02-05 03:48:00,
2013-02-04 21:53:00,28.1,22.7,30.12,NNW,336,0.0,1.0,80,0.00,,---,0.00,0.00,VWS V14.01,2013-02-05 03:53:00,
2013-02-04 21:58:00,28.1,22.7,30.11,NNW,337,0.0,1.0,80,0.00,,---,0.00,0.00,VWS V14.01,2013-02-05 03:58:00,
2013-02-04 22:03:00,28.1,23.0,30.11,NNW,337,0.0,2.0,81,0.00,,---,0.00,0.00,VWS V14.01,2013-02-05 04:03:00,
2013-02-04 22:08:00,28.1,23.0,30.10,NNW,337,0.0,0.0,81,0.00,,---,0.00,0.00,VWS V14.01,2013-02-05 04:08:00,
2013-02-04 22:13:00,28.2,23.1,30.10,NNW,337,0.0,0.0,81,0.00,,---,0.00,0.00,VWS V14.01,2013-02-05 04:13:00,
2013-02-04 22:18:00,28.1,23.0,30.10,NNW,337,0.0,0.0,81,0.00,,---,0.00,0.00,VWS V14.01,2013-02-05 04:18:00,
2013-02-04 22:23:00,28.1,23.0,30.10,NNW,337,0.0,0.0,81,0.00,,---,0.00,0.00,VWS V14.01,2013-02-05 04:23:00,
2013-02-04 22:28:00,28.0,22.9,30.11,NNW,337,0.0,0.0,81,0.00,,---,0.00,0.00,VWS V14.01,2013-02-05 04:28:00,
2013-02-04 22:33:00,28.0,22.9,30.10,NNW,337,0.0,0.0,81,0.00,,---,0.00,0.00,VWS V14.01,2013-02-05 04:33:00,
2013-02-04 22:38:00,28.1,23.3,30.10,NNW,337,0.0,0.0,82,0.00,,---,0.00,0.00,VWS V14.01,2013-02-05 04:38:00,
2013-02-04 22:43:00,28.0,22.9,30.10,NNW,337,0.0,0.0,81,0.00,,---,0.00,0.00,VWS V14.01,2013-02-05 04:43:00,
2013-02-04 22:48:00,27.9,22.8,30.10,NNW,337,2.0,2.0,81,0.00,,---,0.00,0.00,VWS V14.01,2013-02-05 04:48:00,
2013-02-04 22:53:00,27.9,22.8,30.09,NNW,337,0.0,1.0,81,0.00,,---,0.00,0.00,VWS V14.01,2013-02-05 04:53:00,
2013-02-04 22:58:00,27.9,22.8,30.10,NNW,337,0.0,0.0,81,0.00,,---,0.00,0.00,VWS V14.01,2013-02-05 04:58:00,
2013-02-04 23:00:00,27.8,22.7,30.09,NNW,337,0.0,0.0,81,0.00,,---,0.00,0.00,VWS V14.01,2013-02-05 05:00:00,
2013-02-04 23:05:00,27.8,22.7,30.09,NNW,338,1.0,2.0,81,0.00,,---,0.00,0.00,VWS V14.01,2013-02-05 05:05:00,
2013-02-04 23:10:00,27.7,22.6,30.08,NE,34,1.0,2.0,81,0.00,,---,0.00,0.00,VWS V14.01,2013-02-05 05:10:00,
2013-02-04 23:15:00,27.7,22.6,30.08,NE,35,0.0,0.0,81,0.00,,---,0.00,0.00,VWS V14.01,2013-02-05 05:15:00,
2013-02-04 23:20:00,27.7,22.6,30.07,NE,35,0.0,2.0,81,0.00,,---,0.00,0.00,VWS V14.01,2013-02-05 05:20:00,
2013-02-04 23:25:00,27.7,22.9,30.08,NE,34,0.0,0.0,82,0.00,,---,0.00,0.00,VWS V14.01,2013-02-05 05:25:00,
2013-02-04 23:30:00,27.6,22.8,30.08,NE,36,0.0,0.0,82,0.00,,---,0.00,0.00,VWS V14.01,2013-02-05 05:30:00,
2013-02-04 23:35:00,27.6,22.8,30.08,NE,35,0.0,0.0,82,0.00,,---,0.00,0.00,VWS V14.01,2013-02-05 05:35:00,
2013-02-04 23:40:00,27.6,22.8,30.08,NE,34,0.0,0.0,82,0.00,,---,0.00,0.00,VWS V14.01,2013-02-05 05:40:00,
2013-02-04 23:45:00,27.6,22.8,30.09,NE,34,0.0,0.0,82,0.00,,---,0.00,0.00,VWS V14.01,2013-02-05 05:45:00,
2013-02-04 23:50:00,27.6,22.8,30.09,NE,36,0.0,0.0,82,0.00,,---,0.00,0.00,VWS V14.01,2013-02-05 05:50:00,
2013-02-04 23:55:00,27.7,22.9,30.08,NE,36,0.0,0.0,82,0.00,,---,0.00,0.00,VWS V14.01,2013-02-05 05:55:00,